Time;durP1;ratioP1;P1;durP2;ratioP2;P2;SDS_P1;SDS_P2;PMS_P1;PMS_P2;Temp;Humidity;BMP_temperature;BMP_pressure;BME280_temperature;BME280_humidity;BME280_pressure;Samples;Min_cycle;Max_cycle;Signal;HPM_P1;HPM_P2
2021/08/01 00:01:06;;;;;;;18.10;10.48;;;;;;;16.78;89.06;97520.09;1706904;84;20882;-74
2021/08/01 00:03:32;;;;;;;16.70;10.48;;;;;;;16.79;89.44;97524.44;1706942;84;20867;-73
2021/08/01 00:05:58;;;;;;;15.38;9.88;;;;;;;16.86;88.94;97524.72;1706889;83;21305;-79
2021/08/01 00:08:24;;;;;;;16.45;10.75;;;;;;;16.88;90.14;97521.87;1706807;83;20982;-79
2021/08/01 00:10:51;;;;;;;15.23;9.18;;;;;;;16.86;90.94;97519.23;1706864;82;20858;-78
2021/08/01 00:13:17;;;;;;;16.00;9.60;;;;;;;16.85;90.31;97520.38;1707032;82;20966;-78
2021/08/01 00:15:43;;;;;;;22.27;9.38;;;;;;;16.73;89.40;97523.81;1707012;82;21009;-78
2021/08/01 00:18:09;;;;;;;15.13;9.80;;;;;;;16.63;89.19;97519.50;1706817;82;21146;-73
2021/08/01 00:20:35;;;;;;;15.30;11.10;;;;;;;16.54;90.06;97516.59;1706808;82;20914;-78
2021/08/01 00:23:02;;;;;;;12.60;9.48;;;;;;;16.50;90.50;97516.45;1707073;83;21013;-78
2021/08/01 00:25:28;;;;;;;15.05;9.88;;;;;;;16.49;89.26;97513.48;1706873;82;21498;-78
2021/08/01 00:27:54;;;;;;;15.58;9.83;;;;;;;16.47;89.56;97510.27;1700620;84;20882;-73
2021/08/01 00:30:20;;;;;;;11.08;8.60;;;;;;;16.44;89.97;97514.23;1699138;84;21347;-73
2021/08/01 00:32:46;;;;;;;14.73;9.58;;;;;;;16.41;89.28;97510.23;1699161;84;20922;-74
2021/08/01 00:35:12;;;;;;;14.00;9.88;;;;;;;16.44;89.55;97521.07;1699245;84;20851;-78
2021/08/01 00:37:38;;;;;;;14.70;8.63;;;;;;;16.49;89.46;97518.13;1699037;84;20874;-78
2021/08/01 00:40:06;;;;;;;15.15;8.45;;;;;;;16.46;89.27;97514.70;1699060;82;20979;-73
2021/08/01 00:42:33;;;;;;;12.98;8.55;;;;;;;16.38;88.41;97508.70;1699298;84;21877;-78
2021/08/01 00:44:59;;;;;;;15.43;8.83;;;;;;;16.28;88.20;97517.52;1699052;83;21002;-73
2021/08/01 00:47:25;;;;;;;13.72;9.55;;;;;;;16.21;88.37;97521.33;1699117;84;20957;-78
2021/08/01 00:49:50;;;;;;;17.92;9.83;;;;;;;16.18;88.18;97515.16;1699161;84;20882;-74
2021/08/01 00:52:16;;;;;;;16.15;9.90;;;;;;;16.19;88.42;97526.89;1699323;84;20914;-78
2021/08/01 00:54:42;;;;;;;19.82;10.25;;;;;;;16.18;88.62;97530.19;1699163;83;21226;-75
2021/08/01 00:57:08;;;;;;;14.40;8.73;;;;;;;16.17;89.30;97532.69;1699106;84;20981;-78
2021/08/01 00:59:34;;;;;;;14.78;9.55;;;;;;;16.11;89.08;97533.99;1699185;84;20863;-78
2021/08/01 01:02:16;;;;;;;15.63;9.00;;;;;;;16.07;89.19;97534.42;1699191;84;21038;-78
2021/08/01 01:04:56;;;;;;;13.60;8.58;;;;;;;16.07;89.30;97539.32;1699307;84;20891;-79
2021/08/01 01:07:42;;;;;;;16.07;9.75;;;;;;;16.08;89.65;97539.55;1698861;84;21943;-73
2021/08/01 01:10:25;;;;;;;16.48;9.28;;;;;;;16.12;89.51;97533.42;1670066;84;21045;-73
2021/08/01 01:13:00;;;;;;;14.98;9.68;;;;;;;16.08;90.02;97533.29;1699201;84;21046;-78
2021/08/01 01:15:26;;;;;;;18.30;10.15;;;;;;;16.02;89.85;97532.66;1699043;84;21388;-73
2021/08/01 01:17:54;;;;;;;13.95;9.90;;;;;;;16.02;90.23;97531.28;1699017;82;21026;-73
2021/08/01 01:20:47;;;;;;;15.93;9.00;;;;;;;16.02;89.97;97520.36;1699136;83;21958;-73
2021/08/01 01:23:47;;;;;;;15.38;8.93;;;;;;;16.05;89.03;97522.42;1656448;83;20927;-79
2021/08/01 01:26:17;;;;;;;14.45;9.15;;;;;;;15.98;89.27;97516.69;1702668;83;21339;-74
2021/08/01 01:29:08;;;;;;;15.35;9.13;;;;;;;16.02;89.15;97522.29;1709308;83;21005;-74
2021/08/01 01:31:49;;;;;;;22.85;10.43;;;;;;;16.02;89.05;97516.83;1706893;84;20965;-74
2021/08/01 01:34:33;;;;;;;11.97;9.48;;;;;;;16.03;90.30;97519.80;1707240;83;21209;-73
2021/08/01 01:37:01;;;;;;;16.07;10.53;;;;;;;16.08;90.08;97518.26;1707055;83;21074;-73
2021/08/01 01:39:28;;;;;;;19.55;11.35;;;;;;;16.16;89.96;97509.79;1707167;83;21045;-74
2021/08/01 01:41:54;;;;;;;17.05;9.88;;;;;;;16.19;90.83;97507.76;1686257;84;21017;-78
2021/08/01 01:44:20;;;;;;;11.28;8.90;;;;;;;16.13;89.75;97503.03;1706829;84;21415;-78
2021/08/01 01:46:46;;;;;;;11.18;8.33;;;;;;;16.04;89.87;97503.63;1706681;83;21289;-78
2021/08/01 01:49:12;;;;;;;15.28;8.95;;;;;;;15.96;90.28;97489.44;1707062;84;20862;-74
2021/08/01 01:51:38;;;;;;;11.20;7.95;;;;;;;15.90;90.71;97488.83;1706738;84;20989;-78
2021/08/01 01:54:06;;;;;;;14.47;8.78;;;;;;;15.84;90.76;97491.49;1706954;84;21373;-73
2021/08/01 01:56:33;;;;;;;20.02;8.73;;;;;;;15.88;90.03;97490.27;1706913;84;20962;-79
2021/08/01 01:59:00;;;;;;;18.95;9.08;;;;;;;15.92;89.69;97494.77;1706645;83;21276;-74
2021/08/01 02:01:26;;;;;;;15.13;8.75;;;;;;;15.87;89.80;97489.47;1686948;84;21379;-73
2021/08/01 02:03:52;;;;;;;17.80;8.48;;;;;;;15.81;90.94;97492.16;1706972;82;20870;-73
2021/08/01 02:06:19;;;;;;;15.23;8.50;;;;;;;15.82;90.50;97491.59;1706872;83;21029;-73
2021/08/01 02:09:08;;;;;;;14.50;7.78;;;;;;;15.80;90.06;97484.50;1706678;84;21016;-79
2021/08/01 02:11:58;;;;;;;13.22;8.85;;;;;;;15.77;89.85;97478.90;1706746;83;21057;-78
2021/08/01 02:14:45;;;;;;;13.18;7.97;;;;;;;15.76;89.84;97478.66;1662431;86;20968;-73
2021/08/01 02:17:12;;;;;;;16.30;8.00;;;;;;;15.71;90.03;97469.27;1684692;84;20982;-74
2021/08/01 02:19:39;;;;;;;14.03;7.90;;;;;;;15.73;89.47;97467.84;1706908;84;21442;-79
2021/08/01 02:22:05;;;;;;;12.58;8.48;;;;;;;15.71;90.39;97463.80;1706954;83;21074;-74
2021/08/01 02:24:32;;;;;;;10.45;8.30;;;;;;;15.71;90.83;97457.78;1707034;82;21494;-74
2021/08/01 02:26:58;;;;;;;14.60;8.50;;;;;;;15.69;89.84;97458.67;1685417;84;21015;-73
2021/08/01 02:29:24;;;;;;;13.58;7.90;;;;;;;15.67;89.40;97450.02;1704781;84;20953;-79
2021/08/01 02:31:50;;;;;;;13.15;7.97;;;;;;;15.69;90.15;97449.12;1699225;83;20903;-79
2021/08/01 02:34:16;;;;;;;12.05;7.40;;;;;;;15.70;89.53;97450.72;1699323;83;20883;-79
2021/08/01 02:36:42;;;;;;;12.90;8.25;;;;;;;15.72;89.48;97458.05;1698942;83;21251;-74
2021/08/01 02:39:08;;;;;;;24.25;9.25;;;;;;;15.70;90.53;97454.81;1698842;83;20994;-79
2021/08/01 02:41:36;;;;;;;12.82;7.97;;;;;;;15.74;90.23;97450.88;1699159;82;20882;-79
2021/08/01 02:44:07;;;;;;;12.33;8.88;;;;;;;15.72;90.63;97445.75;1699065;83;20934;-79
2021/08/01 02:46:33;;;;;;;13.85;8.00;;;;;;;15.73;90.10;97441.89;1698552;84;20903;-78
2021/08/01 02:49:01;;;;;;;11.73;8.00;;;;;;;15.73;90.02;97429.59;1698825;84;20879;-73
2021/08/01 02:51:28;;;;;;;13.58;7.92;;;;;;;15.78;89.69;97439.53;1699113;83;20990;-74
2021/08/01 02:53:54;;;;;;;11.97;9.05;;;;;;;15.76;89.46;97441.79;1699014;84;21041;-73
2021/08/01 02:56:22;;;;;;;10.88;7.28;;;;;;;15.78;90.74;97443.06;1679293;84;20970;-79
2021/08/01 02:58:51;;;;;;;11.50;7.30;;;;;;;15.80;90.72;97439.99;1699299;82;20994;-78
2021/08/01 03:01:17;;;;;;;13.62;8.73;;;;;;;15.82;90.64;97433.66;1698841;83;21728;-73
2021/08/01 03:03:43;;;;;;;17.45;8.45;;;;;;;15.80;90.44;97434.53;1698986;84;20906;-72
2021/08/01 03:06:09;;;;;;;10.45;7.20;;;;;;;15.80;90.25;97429.87;1699123;83;21383;-72
2021/08/01 03:08:36;;;;;;;15.85;7.25;;;;;;;15.80;89.74;97437.27;1698967;83;20827;-72
2021/08/01 03:11:02;;;;;;;15.55;8.15;;;;;;;15.78;89.78;97443.06;1698990;83;21376;-77
2021/08/01 03:13:28;;;;;;;11.93;7.60;;;;;;;15.72;91.10;97447.12;1699011;83;21251;-72
2021/08/01 03:15:53;;;;;;;11.60;7.12;;;;;;;15.75;91.16;97436.89;1698985;84;20894;-73
2021/08/01 03:18:19;;;;;;;19.20;8.28;;;;;;;15.78;91.25;97438.95;1699113;83;20937;-73
2021/08/01 03:20:45;;;;;;;9.88;6.65;;;;;;;15.77;91.33;97427.00;1699088;84;20902;-77
2021/08/01 03:23:11;;;;;;;10.18;7.28;;;;;;;15.80;90.67;97429.87;1699242;84;20878;-72
2021/08/01 03:25:38;;;;;;;10.05;7.37;;;;;;;15.84;90.49;97428.66;1699163;83;21964;-72
2021/08/01 03:28:04;;;;;;;12.13;7.40;;;;;;;15.89;90.97;97427.66;1698825;83;21018;-77
2021/08/01 03:30:30;;;;;;;10.43;6.40;;;;;;;15.93;90.34;97422.59;1698930;83;21037;-73
2021/08/01 03:32:56;;;;;;;10.10;7.22;;;;;;;15.96;90.63;97414.30;1699204;84;20903;-77
2021/08/01 03:35:23;;;;;;;13.58;7.50;;;;;;;16.02;90.00;97414.35;1699200;84;21478;-73
2021/08/01 03:37:49;;;;;;;11.28;7.10;;;;;;;16.03;89.95;97411.29;1699160;82;21884;-77
2021/08/01 03:40:15;;;;;;;11.95;7.58;;;;;;;16.02;91.31;97405.59;1699251;84;20882;-77
2021/08/01 03:42:41;;;;;;;9.60;7.10;;;;;;;16.05;92.62;97399.45;1699052;83;20943;-72
2021/08/01 03:45:10;;;;;;;10.32;8.38;;;;;;;16.11;92.39;97388.34;1699249;83;21022;-77
2021/08/01 03:47:37;;;;;;;13.65;7.72;;;;;;;16.07;92.40;97389.59;1699397;83;20942;-73
2021/08/01 03:50:03;;;;;;;15.93;7.90;;;;;;;16.07;91.95;97394.48;1699259;83;21272;-78
2021/08/01 03:52:29;;;;;;;13.45;7.92;;;;;;;16.05;92.55;97383.06;1699354;84;21376;-73
2021/08/01 03:54:55;;;;;;;9.53;7.58;;;;;;;16.11;91.93;97376.05;1699394;84;20886;-73
2021/08/01 03:57:21;;;;;;;12.95;6.33;;;;;;;16.14;91.51;97367.98;1699073;83;20938;-73
2021/08/01 03:59:47;;;;;;;8.65;6.87;;;;;;;16.14;91.13;97369.34;1699490;84;20866;-74
2021/08/01 04:02:13;;;;;;;13.68;7.08;;;;;;;16.17;90.66;97373.37;1699022;83;21305;-73
2021/08/01 04:04:40;;;;;;;16.17;7.85;;;;;;;16.16;90.44;97380.77;1699343;83;20926;-78
2021/08/01 04:07:06;;;;;;;10.68;6.28;;;;;;;16.19;90.55;97386.92;1699010;83;21076;-77
2021/08/01 04:09:32;;;;;;;8.75;7.05;;;;;;;16.23;90.27;97392.52;1699378;83;20872;-74
2021/08/01 04:11:58;;;;;;;10.68;7.95;;;;;;;16.21;91.23;97387.39;1698909;83;21010;-78
2021/08/01 04:14:25;;;;;;;13.05;7.78;;;;;;;16.28;90.64;97395.07;1699415;83;21316;-73
2021/08/01 04:16:51;;;;;;;16.50;7.78;;;;;;;16.34;90.47;97393.19;1699089;82;21048;-78
2021/08/01 04:19:18;;;;;;;9.98;7.40;;;;;;;16.37;90.47;97373.94;1699284;83;21525;-74
2021/08/01 04:21:44;;;;;;;18.00;7.33;;;;;;;16.40;90.20;97371.89;1698991;84;20963;-78
2021/08/01 04:24:11;;;;;;;12.37;7.22;;;;;;;16.46;89.94;97365.11;1699428;83;21469;-73
2021/08/01 04:26:37;;;;;;;14.90;7.97;;;;;;;16.48;89.87;97368.87;1700551;83;21204;-73
2021/08/01 04:29:04;;;;;;;16.40;7.90;;;;;;;16.56;90.05;97363.33;1716799;83;20922;-73
2021/08/01 04:31:30;;;;;;;10.58;6.70;;;;;;;16.65;89.67;97369.52;1716738;83;20965;-73
2021/08/01 04:33:56;;;;;;;12.33;6.67;;;;;;;16.70;89.07;97370.50;1716826;83;21399;-77
2021/08/01 04:36:22;;;;;;;9.80;7.17;;;;;;;16.71;89.08;97379.73;1712349;83;20954;-73
2021/08/01 04:38:48;;;;;;;12.65;7.28;;;;;;;16.73;89.08;97382.13;1706942;83;21127;-78
2021/08/01 04:41:14;;;;;;;11.90;7.37;;;;;;;16.79;89.60;97393.11;1706875;82;20921;-78
2021/08/01 04:43:40;;;;;;;10.05;7.15;;;;;;;16.89;90.36;97396.80;1706949;84;20866;-77
2021/08/01 04:46:06;;;;;;;12.60;8.03;;;;;;;16.95;90.39;97405.61;1707049;83;20941;-73
2021/08/01 04:48:32;;;;;;;11.48;8.08;;;;;;;17.03;90.61;97404.73;1706964;84;21022;-73
2021/08/01 04:50:58;;;;;;;14.20;7.33;;;;;;;17.11;90.44;97403.86;1706623;84;21033;-73
2021/08/01 04:53:24;;;;;;;8.10;6.70;;;;;;;17.16;89.68;97409.10;1706941;83;20905;-73
2021/08/01 04:55:50;;;;;;;13.78;7.53;;;;;;;17.22;89.48;97405.59;1707144;84;20834;-73
2021/08/01 04:58:16;;;;;;;12.07;8.15;;;;;;;17.23;89.37;97402.52;1706950;84;20870;-73
2021/08/01 05:00:42;;;;;;;9.75;7.17;;;;;;;17.26;89.38;97405.97;1707006;84;21620;-76
2021/08/01 05:03:07;;;;;;;11.20;7.00;;;;;;;17.32;88.92;97411.44;1706917;83;21246;-73
2021/08/01 05:05:38;;;;;;;9.53;6.67;;;;;;;17.36;88.57;97412.95;1706941;84;20878;-77
2021/08/01 05:08:04;;;;;;;9.23;7.65;;;;;;;17.34;88.58;97418.73;1706938;83;20938;-78
2021/08/01 05:10:31;;;;;;;11.53;7.92;;;;;;;17.36;89.24;97420.59;1706959;82;21473;-78
2021/08/01 05:12:57;;;;;;;10.30;7.17;;;;;;;17.44;89.30;97425.75;1706901;84;20922;-73
2021/08/01 05:15:23;;;;;;;13.38;7.10;;;;;;;17.54;88.88;97426.68;1706846;84;21470;-77
2021/08/01 05:17:49;;;;;;;10.28;6.90;;;;;;;17.57;88.40;97436.16;1706673;82;21033;-73
2021/08/01 05:20:15;;;;;;;10.48;7.72;;;;;;;17.67;88.24;97439.25;1706998;82;20993;-78
2021/08/01 05:22:41;;;;;;;14.15;7.70;;;;;;;17.72;88.54;97433.59;1706755;82;20962;-78
2021/08/01 05:25:08;;;;;;;9.28;7.03;;;;;;;17.83;88.12;97422.18;1707043;84;20875;-78
2021/08/01 05:27:34;;;;;;;8.78;7.37;;;;;;;17.88;88.37;97428.82;1709495;83;21302;-78
2021/08/01 05:30:01;;;;;;;11.05;7.08;;;;;;;17.97;87.84;97434.42;1715350;83;21492;-77
2021/08/01 05:32:33;;;;;;;9.75;7.75;;;;;;;17.99;87.38;97436.81;1712954;83;20966;-73
2021/08/01 05:35:00;;;;;;;9.18;7.42;;;;;;;17.98;87.80;97432.47;1709787;83;21038;-74
2021/08/01 05:37:26;;;;;;;12.30;7.28;;;;;;;18.06;87.44;97430.77;1706775;83;21006;-78
2021/08/01 05:39:52;;;;;;;10.40;7.40;;;;;;;18.10;87.07;97431.09;1707088;84;21778;-79
2021/08/01 05:42:18;;;;;;;10.70;8.23;;;;;;;18.12;86.53;97422.55;1706726;84;20854;-73
2021/08/01 05:44:44;;;;;;;10.38;6.62;;;;;;;18.09;86.85;97424.02;1707181;84;20898;-74
2021/08/01 05:47:10;;;;;;;8.43;7.28;;;;;;;18.12;86.99;97426.09;1706958;83;20978;-74
2021/08/01 05:49:36;;;;;;;9.63;7.65;;;;;;;18.16;86.99;97429.73;1707005;83;21064;-78
2021/08/01 05:52:02;;;;;;;9.10;7.30;;;;;;;18.27;86.70;97410.87;1706813;84;21135;-74
2021/08/01 05:54:28;;;;;;;9.03;6.95;;;;;;;18.34;86.91;97411.09;1706981;82;21078;-74
2021/08/01 05:56:55;;;;;;;9.35;6.83;;;;;;;18.48;86.76;97407.42;1706919;84;21552;-78
2021/08/01 05:59:21;;;;;;;10.13;6.87;;;;;;;18.58;86.79;97405.56;1707123;82;21037;-78
2021/08/01 06:01:46;;;;;;;10.10;8.33;;;;;;;18.79;86.21;97404.62;1706987;82;20884;-74
2021/08/01 06:04:14;;;;;;;11.53;7.22;;;;;;;18.99;85.05;97395.98;1706889;82;21909;-74
2021/08/01 06:06:40;;;;;;;9.53;7.00;;;;;;;19.12;85.21;97387.91;1707029;82;21001;-78
2021/08/01 06:09:06;;;;;;;9.95;6.92;;;;;;;19.37;84.97;97393.50;1706813;84;20961;-79
2021/08/01 06:11:32;;;;;;;11.30;8.18;;;;;;;19.51;83.26;97393.66;1706907;82;21460;-74
2021/08/01 06:13:58;;;;;;;10.85;8.30;;;;;;;19.48;83.39;97388.28;1706687;84;20997;-74
2021/08/01 06:16:24;;;;;;;8.90;7.03;;;;;;;19.53;82.81;97387.23;1706807;82;21134;-78
2021/08/01 06:18:50;;;;;;;8.33;7.12;;;;;;;19.67;82.81;97389.01;1706680;84;21631;-77
2021/08/01 06:21:18;;;;;;;15.70;6.95;;;;;;;19.75;82.13;97390.79;1706973;84;20929;-74
2021/08/01 06:23:49;;;;;;;10.45;7.25;;;;;;;19.79;81.94;97390.28;1706757;84;20934;-78
2021/08/01 06:26:16;;;;;;;12.37;8.60;;;;;;;19.81;81.92;97379.72;1706903;84;21501;-78
2021/08/01 06:28:43;;;;;;;9.38;7.55;;;;;;;20.08;81.70;97384.09;1700095;82;20987;-73
2021/08/01 06:31:09;;;;;;;9.93;7.25;;;;;;;20.24;80.82;97387.61;1705359;83;21033;-74
2021/08/01 06:33:35;;;;;;;13.08;7.35;;;;;;;20.27;80.26;97402.05;1706747;83;20970;-78
2021/08/01 06:36:06;;;;;;;12.07;6.40;;;;;;;20.18;80.06;97405.57;1707091;83;21030;-74
2021/08/01 06:38:32;;;;;;;9.18;6.67;;;;;;;20.12;80.34;97398.73;1706914;83;20966;-79
2021/08/01 06:40:58;;;;;;;13.78;7.35;;;;;;;20.13;79.91;97400.33;1706985;84;22016;-74
2021/08/01 06:43:24;;;;;;;11.33;8.23;;;;;;;20.13;80.20;97399.75;1706722;84;20867;-78
2021/08/01 06:45:50;;;;;;;10.15;7.65;;;;;;;20.13;80.21;97395.63;1706731;82;20866;-74
2021/08/01 06:48:16;;;;;;;13.75;7.47;;;;;;;20.21;79.87;97400.72;1706804;82;20826;-74
2021/08/01 06:50:42;;;;;;;9.88;6.80;;;;;;;20.38;79.79;97394.03;1707049;83;20819;-74
2021/08/01 06:53:08;;;;;;;11.63;6.70;;;;;;;20.48;79.60;97385.24;1706741;83;21196;-79
2021/08/01 06:55:34;;;;;;;9.05;7.05;;;;;;;20.45;79.58;97392.27;1706942;83;20866;-78
2021/08/01 06:58:00;;;;;;;11.65;6.28;;;;;;;20.50;79.51;97398.05;1706875;82;20886;-79
2021/08/01 07:00:26;;;;;;;13.22;6.65;;;;;;;20.56;79.08;97401.55;1707082;83;20874;-78
2021/08/01 07:02:58;;;;;;;8.38;6.58;;;;;;;20.50;79.41;97398.86;1706823;83;20985;-74
2021/08/01 07:05:24;;;;;;;19.52;6.85;;;;;;;20.42;79.58;97397.07;1707206;82;21735;-74
2021/08/01 07:07:50;;;;;;;9.10;7.37;;;;;;;20.33;80.19;97403.92;1706742;83;21006;-78
2021/08/01 07:10:17;;;;;;;11.93;8.20;;;;;;;20.28;80.01;97403.06;1707131;82;21394;-78
2021/08/01 07:12:43;;;;;;;9.18;8.08;;;;;;;20.09;80.74;97399.47;1706941;83;20955;-74
2021/08/01 07:15:16;;;;;;;9.98;8.63;;;;;;;20.00;81.64;97399.07;1707283;83;21065;-75
2021/08/01 07:17:42;;;;;;;11.45;7.90;;;;;;;19.88;83.18;97386.78;1706975;83;21329;-74
2021/08/01 07:20:12;;;;;;;9.60;7.58;;;;;;;19.95;81.65;97372.41;1707337;83;20878;-78
2021/08/01 07:22:39;;;;;;;9.55;7.60;;;;;;;19.98;82.36;97364.23;1706915;84;20982;-73
2021/08/01 07:25:07;;;;;;;12.13;8.35;;;;;;;20.05;82.06;97347.69;1707085;82;21013;-78
2021/08/01 07:27:33;;;;;;;10.08;7.12;;;;;;;20.18;81.86;97351.94;1707317;83;20958;-73
2021/08/01 07:29:59;;;;;;;7.75;6.12;;;;;;;20.19;81.75;97335.66;1715353;83;21850;-78
2021/08/01 07:32:25;;;;;;;10.55;7.45;;;;;;;20.20;81.62;97327.03;1715125;83;20890;-74
2021/08/01 07:34:51;;;;;;;10.10;7.87;;;;;;;20.11;81.73;97302.27;1715401;83;21413;-74
2021/08/01 07:37:17;;;;;;;8.70;7.03;;;;;;;20.09;82.17;97273.77;1708666;83;20815;-78
2021/08/01 07:39:43;;;;;;;9.80;7.58;;;;;;;20.08;81.96;97265.30;1706959;84;21100;-78
2021/08/01 07:42:10;;;;;;;12.53;8.78;;;;;;;20.03;82.39;97253.19;1707065;82;21271;-73
2021/08/01 07:44:46;;;;;;;7.42;6.62;;;;;;;19.95;82.39;97256.94;1706904;84;21025;-74
2021/08/01 07:47:18;;;;;;;9.33;7.12;;;;;;;19.99;82.54;97277.05;1706977;84;20981;-74
2021/08/01 07:49:45;;;;;;;8.78;6.45;;;;;;;20.04;82.87;97257.53;1707183;83;20942;-78
2021/08/01 07:52:10;;;;;;;9.88;7.87;;;;;;;20.07;83.11;97271.13;1707085;83;21391;-78
2021/08/01 07:54:38;;;;;;;13.85;8.40;;;;;;;20.19;82.58;97286.94;1707119;83;21260;-78
2021/08/01 07:57:07;;;;;;;10.48;7.70;;;;;;;20.27;81.97;97272.77;1707005;82;21366;-74
2021/08/01 07:59:33;;;;;;;;;;;;;;;20.29;82.23;97248.44;1708607;83;20950;-79
2021/08/01 08:01:59;;;;;;;13.18;8.25;;;;;;;20.29;84.42;97227.22;1707056;82;20430;-74
2021/08/01 08:04:25;;;;;;;11.00;7.75;;;;;;;20.35;83.38;97219.48;1707211;83;20878;-75
2021/08/01 08:06:51;;;;;;;12.68;7.97;;;;;;;20.26;84.13;97206.53;1707152;83;21116;-80
2021/08/01 08:09:21;;;;;;;10.30;7.72;;;;;;;20.32;83.33;97213.89;1706861;82;21458;-79
2021/08/01 08:11:47;;;;;;;7.78;6.45;;;;;;;20.41;83.23;97215.27;1706982;82;20962;-74
2021/08/01 08:14:13;;;;;;;8.85;7.40;;;;;;;20.49;83.04;97214.27;1707020;84;21438;-79
2021/08/01 08:16:39;;;;;;;11.08;7.03;;;;;;;20.58;82.82;97210.50;1707188;83;21543;-79
2021/08/01 08:19:05;;;;;;;12.65;9.50;;;;;;;20.59;80.87;97210.71;1706915;83;21259;-79
2021/08/01 08:21:31;;;;;;;9.53;7.90;;;;;;;20.77;81.25;97220.91;1707135;84;21611;-74
2021/08/01 08:23:57;;;;;;;11.78;8.75;;;;;;;20.98;80.81;97221.07;1706899;82;20949;-74
2021/08/01 08:26:23;;;;;;;10.20;7.22;;;;;;;21.13;80.79;97222.33;1707028;82;20882;-75
2021/08/01 08:28:49;;;;;;;10.30;6.95;;;;;;;21.26;80.80;97235.32;1703725;82;21041;-74
2021/08/01 08:31:15;;;;;;;9.38;7.25;;;;;;;21.31;80.75;97236.43;1699037;83;21130;-79
2021/08/01 08:33:42;;;;;;;9.13;6.75;;;;;;;21.30;80.74;97231.30;1698947;84;20875;-75
2021/08/01 08:36:08;;;;;;;10.65;7.37;;;;;;;21.32;80.35;97234.47;1699135;84;21009;-74
2021/08/01 08:38:34;;;;;;;8.45;7.42;;;;;;;21.28;80.43;97241.89;1699131;84;21360;-80
2021/08/01 08:41:00;;;;;;;11.55;7.03;;;;;;;21.24;80.47;97290.00;1699339;84;20843;-79
2021/08/01 08:43:26;;;;;;;11.43;7.37;;;;;;;21.21;80.41;97321.62;1699123;84;21302;-75
2021/08/01 08:45:52;;;;;;;10.60;7.20;;;;;;;21.19;80.45;97346.76;1699051;84;20879;-80
2021/08/01 08:48:18;;;;;;;11.97;5.60;;;;;;;21.15;80.51;97378.97;1699066;83;20946;-74
2021/08/01 08:50:50;;;;;;;11.53;6.55;;;;;;;21.11;80.17;97381.66;1702900;84;20854;-79
2021/08/01 08:53:19;;;;;;;7.30;6.45;;;;;;;21.01;80.21;97397.95;1699095;84;20962;-79
2021/08/01 08:55:45;;;;;;;6.60;5.60;;;;;;;20.97;79.90;97394.34;1697827;84;21853;-79
2021/08/01 08:58:11;;;;;;;11.12;5.40;;;;;;;20.90;79.79;97377.67;1679026;84;20974;-79
2021/08/01 09:00:37;;;;;;;6.67;4.90;;;;;;;20.95;79.92;97385.66;1699272;82;20977;-79
2021/08/01 09:03:03;;;;;;;6.75;4.78;;;;;;;20.91;79.89;97388.91;1699166;83;20874;-76
2021/08/01 09:05:31;;;;;;;5.97;4.58;;;;;;;20.92;79.77;97391.29;1699141;84;20879;-79
2021/08/01 09:07:57;;;;;;;5.53;4.83;;;;;;;20.94;79.44;97409.64;1699198;82;22102;-79
2021/08/01 09:10:23;;;;;;;5.87;4.97;;;;;;;20.86;79.48;97413.41;1699109;83;20954;-79
2021/08/01 09:12:52;;;;;;;8.05;4.92;;;;;;;20.83;79.18;97422.38;1699252;84;20942;-79
2021/08/01 09:15:23;;;;;;;9.33;5.60;;;;;;;20.78;78.99;97430.35;1699132;83;21485;-79
2021/08/01 09:17:49;;;;;;;8.88;4.70;;;;;;;20.72;78.79;97436.49;1699044;84;21065;-79
2021/08/01 09:20:27;;;;;;;7.12;4.50;;;;;;;20.65;78.97;97433.58;1699339;84;21932;-79
2021/08/01 09:23:11;;;;;;;7.42;4.37;;;;;;;20.59;79.29;97419.29;1699352;83;20956;-79
2021/08/01 09:25:41;;;;;;;6.83;5.08;;;;;;;20.50;79.16;97410.44;1696936;84;21006;-80
2021/08/01 09:28:20;;;;;;;5.95;4.15;;;;;;;20.38;79.36;97408.58;1699136;83;20963;-78
2021/08/01 09:30:54;;;;;;;;;;;;;;;20.29;79.61;97388.73;1704209;84;21030;-73
2021/08/01 09:33:43;;;;;;;6.35;4.78;;;;;;;20.09;79.58;97364.51;1710613;83;21069;-73
2021/08/01 09:36:17;;;;;;;9.20;6.33;;;;;;;19.94;79.97;97351.58;1716767;83;20934;-79
2021/08/01 09:39:00;;;;;;;11.05;7.30;;;;;;;19.88;80.57;97335.92;1709371;82;20915;-81
2021/08/01 09:41:36;;;;;;;11.45;6.10;;;;;;;19.84;82.46;97346.05;1707110;83;20962;-79
2021/08/01 09:44:10;;;;;;;7.62;5.40;;;;;;;19.76;82.79;97357.23;1706766;83;21013;-79
2021/08/01 09:46:38;;;;;;;8.05;6.33;;;;;;;19.81;83.21;97333.00;1706908;83;21865;-74
2021/08/01 09:49:12;;;;;;;6.78;5.00;;;;;;;19.89;83.45;97307.27;1706840;82;21343;-79
2021/08/01 09:51:45;;;;;;;5.65;3.95;;;;;;;20.04;83.45;97312.52;1705691;83;21057;-74
2021/08/01 09:54:12;;;;;;;4.75;3.80;;;;;;;20.18;84.13;97283.97;1706594;83;20994;-79
2021/08/01 09:56:38;;;;;;;6.12;4.28;;;;;;;20.20;85.10;97273.98;1706801;82;21010;-79
2021/08/01 09:59:20;;;;;;;4.95;4.05;;;;;;;20.31;83.75;97267.33;1706811;83;21849;-74
2021/08/01 10:01:58;;;;;;;7.05;3.75;;;;;;;20.52;84.57;97249.34;1706012;84;20902;-79
2021/08/01 10:04:28;;;;;;;4.95;3.95;;;;;;;20.77;82.80;97238.81;1706129;83;20997;-78
2021/08/01 10:07:15;;;;;;;4.78;3.33;;;;;;;21.31;82.24;97228.75;1706443;84;20961;-73
2021/08/01 10:09:43;;;;;;;6.10;4.17;;;;;;;22.65;78.75;97219.37;1706801;84;20963;-79
2021/08/01 10:12:10;;;;;;;4.60;3.62;;;;;;;25.27;71.25;97215.00;1707000;82;22016;-73
2021/08/01 10:14:36;;;;;;;4.10;2.72;;;;;;;26.35;68.31;97208.10;1706963;83;21021;-74
2021/08/01 10:17:03;;;;;;;4.40;3.47;;;;;;;25.78;67.48;97207.66;1706841;83;20962;-73
2021/08/01 10:19:30;;;;;;;3.00;2.70;;;;;;;25.61;67.50;97211.23;1706841;83;21028;-79
2021/08/01 10:21:58;;;;;;;5.37;3.12;;;;;;;25.78;64.10;97199.34;1707018;84;21013;-78
2021/08/01 10:24:31;;;;;;;;;;;;;;;24.85;66.96;97219.87;1709421;83;21297;-78
2021/08/01 10:27:06;;;;;;;4.10;2.08;;;;;;;24.14;67.53;97221.78;1706140;83;20166;-80
2021/08/01 10:29:53;;;;;;;5.15;2.15;;;;;;;23.50;67.99;97203.36;1705717;82;21031;-79
2021/08/01 10:32:25;;;;;;;2.87;2.25;;;;;;;22.97;70.03;97220.30;1699341;83;20990;-77
2021/08/01 10:35:09;;;;;;;3.75;2.33;;;;;;;22.62;70.96;97230.36;1679356;84;21060;-79
2021/08/01 10:37:39;;;;;;;7.30;2.42;;;;;;;22.46;71.78;97238.27;1698869;84;21175;-75
2021/08/01 10:40:08;;;;;;;3.05;2.10;;;;;;;22.34;72.26;97231.63;1699235;84;20971;-80
2021/08/01 10:42:35;;;;;;;4.78;2.30;;;;;;;22.15;73.15;97234.55;1699024;83;20954;-80
2021/08/01 10:45:01;;;;;;;5.92;3.05;;;;;;;22.01;73.62;97246.14;1699467;84;21034;-80
2021/08/01 10:47:27;;;;;;;9.65;3.55;;;;;;;21.92;73.72;97213.91;1699157;83;21009;-74
2021/08/01 10:49:52;;;;;;;6.50;3.35;;;;;;;21.59;76.26;97202.20;1699438;84;21235;-75
2021/08/01 10:52:19;;;;;;;3.17;2.83;;;;;;;21.31;75.77;97219.11;1699231;83;21497;-80
2021/08/01 10:54:59;;;;;;;3.85;2.55;;;;;;;21.15;76.20;97221.95;1699393;84;21014;-75
2021/08/01 10:57:26;;;;;;;5.00;2.40;;;;;;;21.10;76.28;97213.41;1699058;84;21041;-74
2021/08/01 10:59:56;;;;;;;3.17;2.20;;;;;;;20.99;77.19;97209.69;1699362;84;21498;-79
2021/08/01 11:02:29;;;;;;;4.40;2.52;;;;;;;20.88;77.78;97223.85;1699239;84;21066;-74
2021/08/01 11:04:55;;;;;;;4.37;2.67;;;;;;;20.79;79.24;97214.45;1699362;82;21061;-79
2021/08/01 11:07:33;;;;;;;4.55;2.58;;;;;;;20.87;79.47;97201.62;1699226;84;21056;-79
2021/08/01 11:10:17;;;;;;;5.62;3.05;;;;;;;21.16;79.59;97188.32;1699484;84;20987;-80
2021/08/01 11:12:44;;;;;;;4.35;2.95;;;;;;;21.21;80.28;97181.93;1699206;84;20931;-74
2021/08/01 11:15:15;;;;;;;3.87;2.47;;;;;;;21.27;79.27;97185.17;1699341;83;21302;-80
2021/08/01 11:17:48;;;;;;;5.25;3.72;;;;;;;21.24;79.08;97187.27;1698988;84;20947;-79
2021/08/01 11:20:25;;;;;;;4.78;2.70;;;;;;;21.24;78.70;97167.98;1699359;83;21427;-74
2021/08/01 11:22:52;;;;;;;5.30;2.87;;;;;;;21.20;77.95;97170.70;1699224;83;21089;-79
2021/08/01 11:25:27;;;;;;;3.67;2.35;;;;;;;20.95;79.17;97159.86;1699382;84;21490;-74
2021/08/01 11:28:17;;;;;;;3.40;2.10;;;;;;;20.88;79.94;97159.16;1698867;84;21115;-79
2021/08/01 11:31:01;;;;;;;5.47;2.58;;;;;;;20.89;80.12;97151.69;1708193;83;21384;-79
2021/08/01 11:33:33;;;;;;;6.65;2.80;;;;;;;20.89;80.83;97150.31;1707093;84;21367;-79
2021/08/01 11:36:25;;;;;;;3.58;2.95;;;;;;;20.91;80.03;97143.84;1707277;83;20989;-73